createdAt,value
2022-11-08T00:00:28.839Z,43.35
2022-11-08T00:02:58.542Z,42.78
2022-11-08T00:05:44.944Z,45.55
2022-11-08T00:08:31.168Z,67.10
2022-11-08T00:11:22.609Z,49.38
2022-11-08T00:13:59.851Z,47.98
2022-11-08T00:16:28.843Z,49.63
2022-11-08T00:18:56.745Z,43.68
2022-11-08T00:21:24.934Z,42.17
2022-11-08T00:23:53.350Z,43.95
2022-11-08T00:26:21.111Z,39.83
2022-11-08T00:28:48.960Z,41.75
2022-11-08T00:31:16.860Z,40.65
2022-11-08T00:33:44.776Z,39.40
2022-11-08T00:36:12.601Z,40.70
2022-11-08T00:38:44.601Z,41.13
2022-11-08T00:41:12.560Z,38.53
2022-11-08T00:43:40.518Z,38.60
2022-11-08T00:46:08.540Z,39.98
2022-11-08T00:48:36.507Z,37.78
2022-11-08T00:51:07.188Z,36.45
2022-11-08T00:53:37.908Z,38.63
2022-11-08T00:56:12.513Z,37.13
2022-11-08T00:58:43.472Z,36.77
2022-11-08T01:01:17.909Z,37.95
2022-11-08T01:03:47.573Z,36.60
2022-11-08T01:06:19.210Z,37.98
2022-11-08T01:08:49.413Z,38.05
2022-11-08T01:11:21.056Z,37.05
2022-11-08T01:13:50.592Z,36.73
2022-11-08T01:16:22.935Z,37.20
2022-11-08T01:18:53.305Z,36.45
2022-11-08T01:21:22.108Z,36.53
2022-11-08T01:23:50.063Z,37.10
2022-11-08T01:26:21.898Z,36.53
2022-11-08T01:28:49.863Z,36.65
2022-11-08T01:31:22.056Z,36.38
2022-11-08T01:33:51.823Z,36.17
2022-11-08T01:36:25.472Z,36.40
2022-11-08T01:38:54.307Z,36.80
2022-11-08T01:41:24.760Z,35.98
2022-11-08T01:43:58.575Z,36.38
2022-11-08T01:46:45.588Z,37.48
2022-11-08T01:49:33.805Z,33.40
2022-11-08T01:52:10.245Z,29.85
2022-11-08T01:54:43.676Z,28.67
2022-11-08T01:57:16.660Z,26.45
2022-11-08T01:59:47.237Z,25.57
2022-11-08T02:02:15.664Z,26.97
2022-11-08T02:04:44.365Z,25.68
2022-11-08T02:07:14.010Z,26.95
2022-11-08T02:09:45.040Z,26.45
2022-11-08T02:12:14.979Z,25.20
2022-11-08T02:14:43.008Z,24.70
2022-11-08T02:17:11.510Z,24.25
2022-11-08T02:19:46.110Z,28.75
2022-11-08T02:22:21.885Z,29.52
2022-11-08T02:24:49.709Z,30.88
2022-11-08T02:27:17.528Z,30.25
2022-11-08T02:29:45.828Z,21.95
2022-11-08T02:32:14.915Z,21.10
2022-11-08T02:34:47.936Z,19.45
2022-11-08T02:37:18.669Z,19.65
2022-11-08T02:39:47.471Z,17.95
2022-11-08T02:42:19.445Z,19.20
2022-11-08T02:44:47.668Z,18.50
2022-11-08T02:47:16.128Z,27.42
2022-11-08T02:49:44.066Z,30.80
2022-11-08T02:52:11.869Z,31.85
2022-11-08T02:54:39.762Z,28.83
2022-11-08T02:57:07.894Z,30.12
2022-11-08T02:59:35.751Z,30.20
2022-11-08T03:02:03.944Z,28.57
2022-11-08T03:04:32.002Z,28.35
2022-11-08T03:06:59.963Z,29.15
2022-11-08T03:09:27.846Z,29.18
2022-11-08T03:11:59.876Z,29.30
2022-11-08T03:17:07.905Z,28.65
2022-11-08T03:19:46.717Z,27.22
2022-11-08T03:22:19.582Z,30.15
2022-11-08T03:24:47.299Z,30.82
2022-11-08T03:27:15.152Z,32.15
2022-11-08T03:29:43.123Z,31.00
2022-11-08T03:32:11.260Z,31.52
2022-11-08T03:34:39.109Z,29.55
2022-11-08T03:37:09.308Z,29.20
2022-11-08T03:39:37.343Z,28.62
2022-11-08T03:42:06.031Z,28.30
2022-11-08T03:44:34.099Z,29.90
2022-11-08T03:47:02.137Z,32.10
2022-11-08T03:49:29.781Z,30.48
2022-11-08T03:51:57.775Z,31.05
2022-11-08T03:54:25.628Z,31.27
2022-11-08T03:56:53.893Z,30.82
2022-11-08T03:59:21.940Z,28.45
2022-11-08T04:01:49.901Z,29.82
2022-11-08T04:04:18.103Z,29.37
2022-11-08T04:06:49.090Z,30.02
2022-11-08T04:09:21.362Z,30.05
2022-11-08T04:12:05.694Z,29.55
2022-11-08T04:14:51.860Z,27.52
2022-11-08T04:17:21.605Z,29.57
2022-11-08T04:20:07.664Z,27.87
2022-11-08T04:22:35.186Z,29.63
2022-11-08T04:25:03.092Z,28.70
2022-11-08T04:27:39.867Z,28.00
2022-11-08T04:30:06.320Z,28.85
2022-11-08T04:32:34.100Z,26.90
2022-11-08T04:35:02.176Z,27.80
2022-11-08T04:37:30.178Z,29.10
2022-11-08T04:39:58.458Z,29.02
2022-11-08T04:42:26.503Z,28.73
2022-11-08T04:44:54.480Z,26.30
2022-11-08T04:47:22.615Z,22.75
2022-11-08T04:49:51.245Z,21.87
2022-11-08T04:52:19.682Z,22.27
2022-11-08T04:54:47.485Z,22.37
2022-11-08T04:57:18.105Z,23.57
2022-11-08T04:59:50.636Z,22.37
2022-11-08T05:02:16.721Z,22.90
2022-11-08T05:04:47.051Z,25.80
2022-11-08T05:07:15.093Z,24.72
2022-11-08T05:09:42.784Z,26.50
2022-11-08T05:12:11.230Z,27.02
2022-11-08T05:14:38.882Z,25.82
2022-11-08T05:17:06.955Z,26.42
2022-11-08T05:19:52.992Z,25.70
2022-11-08T05:22:39.370Z,27.42
2022-11-08T05:25:08.178Z,27.48
2022-11-08T05:27:35.934Z,24.40
2022-11-08T05:30:05.519Z,24.02
2022-11-08T05:32:33.378Z,23.18
2022-11-08T05:35:01.315Z,22.67
2022-11-08T05:37:28.949Z,23.27
2022-11-08T05:39:56.467Z,26.15
2022-11-08T05:42:24.327Z,23.07
2022-11-08T05:44:52.095Z,22.95
2022-11-08T05:47:20.232Z,22.22
2022-11-08T05:49:47.843Z,22.40
2022-11-08T05:52:15.157Z,23.83
2022-11-08T05:54:42.615Z,21.75
2022-11-08T05:57:10.933Z,23.30
2022-11-08T05:59:39.060Z,23.90
2022-11-08T06:02:06.920Z,20.45
2022-11-08T06:04:34.799Z,21.57
2022-11-08T06:07:02.589Z,22.35
2022-11-08T06:09:30.524Z,21.75
2022-11-08T06:11:58.236Z,21.55
2022-11-08T06:14:26.003Z,20.97
2022-11-08T06:16:53.728Z,20.97
2022-11-08T06:19:21.523Z,20.68
2022-11-08T06:21:49.357Z,20.80
2022-11-08T06:24:17.042Z,21.12
2022-11-08T06:26:44.724Z,19.80
2022-11-08T06:29:12.394Z,21.42
2022-11-08T06:31:43.069Z,22.45
2022-11-08T06:34:10.175Z,17.40
2022-11-08T06:36:38.034Z,19.62
2022-11-08T06:39:06.204Z,20.08
2022-11-08T06:41:34.381Z,19.98
2022-11-08T06:44:02.123Z,20.88
2022-11-08T06:46:29.806Z,17.23
2022-11-08T06:48:57.707Z,17.55
2022-11-08T06:51:25.529Z,21.77
2022-11-08T06:53:53.299Z,19.02
2022-11-08T06:56:21.168Z,17.65
2022-11-08T06:58:49.025Z,18.07
2022-11-08T07:01:16.849Z,17.73
2022-11-08T07:03:45.161Z,18.10
2022-11-08T07:06:12.907Z,18.42
2022-11-08T07:08:40.491Z,21.05
2022-11-08T07:11:08.800Z,22.73
2022-11-08T07:13:36.527Z,23.27
2022-11-08T07:16:04.728Z,23.22
2022-11-08T07:18:32.311Z,25.12
2022-11-08T07:21:01.627Z,25.65
2022-11-08T07:23:29.549Z,22.05
2022-11-08T07:26:07.771Z,22.52
2022-11-08T07:28:35.541Z,20.17
2022-11-08T07:31:04.790Z,17.12
2022-11-08T07:33:33.009Z,16.93
2022-11-08T07:36:00.914Z,15.35
2022-11-08T07:38:28.726Z,15.93
2022-11-08T07:40:59.511Z,16.02
2022-11-08T07:43:29.487Z,19.07
2022-11-08T07:46:01.701Z,16.48
2022-11-08T07:48:31.219Z,17.50
2022-11-08T07:50:59.386Z,16.02
2022-11-08T07:53:27.195Z,15.83
2022-11-08T07:55:55.094Z,16.12
2022-11-08T07:58:22.914Z,14.80
2022-11-08T08:00:51.202Z,14.90
2022-11-08T08:03:19.665Z,14.93
2022-11-08T08:05:52.944Z,15.75
2022-11-08T08:08:21.922Z,13.15
2022-11-08T08:10:49.878Z,12.78
2022-11-08T08:13:18.169Z,12.15
2022-11-08T08:15:46.444Z,13.05
2022-11-08T08:18:13.910Z,13.22
2022-11-08T08:20:41.907Z,12.90
2022-11-08T08:23:09.610Z,14.58
2022-11-08T08:25:37.387Z,12.28
2022-11-08T08:28:06.493Z,13.48
2022-11-08T08:30:34.438Z,12.80
2022-11-08T08:33:27.476Z,12.93
2022-11-08T08:35:39.644Z,12.93
2022-11-08T08:38:07.198Z,12.18
2022-11-08T08:40:35.003Z,11.83
2022-11-08T08:43:04.774Z,12.18
2022-11-08T08:45:34.379Z,12.63
2022-11-08T08:48:03.803Z,14.53
2022-11-08T08:50:32.472Z,13.75
2022-11-08T08:53:03.551Z,11.93
2022-11-08T08:55:34.243Z,12.85
2022-11-08T08:58:02.086Z,11.85
2022-11-08T09:03:05.034Z,14.90
2022-11-08T09:05:34.067Z,15.43
2022-11-08T09:08:03.221Z,15.55
2022-11-08T09:10:31.026Z,15.80
2022-11-08T09:13:01.276Z,15.68
2022-11-08T09:15:29.226Z,15.23
2022-11-08T09:17:57.937Z,14.15
2022-11-08T09:20:26.453Z,15.25
2022-11-08T09:22:54.385Z,14.75
2022-11-08T09:25:21.821Z,14.18
2022-11-08T09:27:49.538Z,14.68
2022-11-08T09:30:17.344Z,14.95
2022-11-08T09:33:01.951Z,14.70
2022-11-08T09:35:14.775Z,15.15
2022-11-08T09:37:48.751Z,15.28
2022-11-08T09:40:29.524Z,14.15
2022-11-08T09:43:31.333Z,12.53
2022-11-08T09:45:59.202Z,12.28
2022-11-08T09:48:37.192Z,11.20
2022-11-08T09:51:18.411Z,11.15
2022-11-08T09:54:03.683Z,10.23
2022-11-08T09:56:37.313Z,11.63
2022-11-08T09:59:25.168Z,11.63
2022-11-08T10:01:52.947Z,10.03
2022-11-08T10:04:26.658Z,12.40
2022-11-08T10:07:20.404Z,10.23
2022-11-08T10:10:07.747Z,10.82
2022-11-08T10:13:02.271Z,9.80
2022-11-08T10:15:59.776Z,10.35
2022-11-08T10:19:03.518Z,10.68
2022-11-08T10:21:59.413Z,9.63
2022-11-08T10:27:07.977Z,8.83
2022-11-08T10:29:44.238Z,9.38
2022-11-08T10:32:19.446Z,8.63
2022-11-08T10:35:11.209Z,7.80
2022-11-08T10:37:45.065Z,7.47
2022-11-08T10:40:21.943Z,8.35
2022-11-08T10:43:10.080Z,7.90
2022-11-08T10:45:37.909Z,8.20
2022-11-08T10:48:06.402Z,9.18
2022-11-08T10:50:48.858Z,8.75
2022-11-08T10:53:21.970Z,8.85
2022-11-08T10:55:52.968Z,8.13
2022-11-08T10:58:31.166Z,8.23
2022-11-08T11:01:06.713Z,7.65
2022-11-08T11:03:34.211Z,6.97
2022-11-08T11:06:05.948Z,7.70
2022-11-08T11:08:34.229Z,8.03
2022-11-08T11:11:34.823Z,8.23
2022-11-08T11:14:22.324Z,8.03
2022-11-08T11:17:15.726Z,8.25
2022-11-08T11:19:53.442Z,8.33
2022-11-08T11:22:33.242Z,8.03
2022-11-08T11:25:09.808Z,7.85
2022-11-08T11:27:38.215Z,8.03
2022-11-08T11:30:30.081Z,7.80
2022-11-08T11:33:15.180Z,8.58
2022-11-08T11:36:17.250Z,9.58
2022-11-08T11:38:51.086Z,8.48
2022-11-08T11:41:30.294Z,9.28
2022-11-08T11:44:12.896Z,9.65
2022-11-08T11:47:14.749Z,9.65
2022-11-08T11:49:45.321Z,8.33
2022-11-08T11:52:18.857Z,9.50
2022-11-08T11:54:49.779Z,10.30
2022-11-08T11:57:43.138Z,10.13
2022-11-08T12:00:16.009Z,9.30
2022-11-08T12:03:01.754Z,13.08
2022-11-08T12:06:06.928Z,13.65
2022-11-08T12:08:49.435Z,12.95
2022-11-08T12:11:58.919Z,11.08
2022-11-08T12:14:56.668Z,11.12
2022-11-08T12:17:32.645Z,11.95
2022-11-08T12:20:32.632Z,11.53
2022-11-08T12:23:11.489Z,11.30
2022-11-08T12:25:53.771Z,13.13
2022-11-08T12:28:42.420Z,11.48
2022-11-08T12:31:52.136Z,12.60
2022-11-08T12:34:52.594Z,13.43
2022-11-08T12:37:41.060Z,13.43
2022-11-08T12:40:20.114Z,12.50
2022-11-08T12:43:27.930Z,9.15
2022-11-08T12:46:09.877Z,9.80
2022-11-08T12:49:02.948Z,9.20
2022-11-08T12:52:00.677Z,10.00
2022-11-08T12:54:57.222Z,10.43
2022-11-08T12:57:27.276Z,9.93
2022-11-08T13:00:10.323Z,13.50
2022-11-08T13:02:39.667Z,13.85
2022-11-08T13:05:28.689Z,13.60
2022-11-08T13:08:30.804Z,11.90
2022-11-08T13:11:10.051Z,15.28
2022-11-08T13:13:56.603Z,15.53
2022-11-08T13:16:38.673Z,12.50
2022-11-08T13:19:06.552Z,12.18
2022-11-08T13:21:39.109Z,12.53
2022-11-08T13:24:38.372Z,14.53
2022-11-08T13:26:42.698Z,15.50
2022-11-08T13:29:19.020Z,13.60
2022-11-08T13:32:07.027Z,11.78
2022-11-08T13:35:00.936Z,10.43
2022-11-08T13:37:45.823Z,11.38
2022-11-08T13:40:46.321Z,11.10
2022-11-08T13:43:25.785Z,10.70
2022-11-08T13:45:55.797Z,11.12
2022-11-08T13:48:37.218Z,11.05
2022-11-08T13:51:30.194Z,17.90
2022-11-08T13:54:04.789Z,14.18
2022-11-08T13:56:46.422Z,15.38
2022-11-08T13:59:38.775Z,13.60
2022-11-08T14:02:27.105Z,15.72
2022-11-08T14:04:58.403Z,13.80
2022-11-08T14:07:44.031Z,14.83
2022-11-08T14:13:17.914Z,16.57
2022-11-08T14:16:02.784Z,16.23
2022-11-08T14:18:33.768Z,15.65
2022-11-08T14:21:04.917Z,12.47
2022-11-08T14:23:39.873Z,14.43
2022-11-08T14:26:21.479Z,15.00
2022-11-08T14:28:50.918Z,12.35
2022-11-08T14:31:29.978Z,11.88
2022-11-08T14:33:59.877Z,13.90
2022-11-08T14:36:30.576Z,15.68
2022-11-08T14:39:15.217Z,13.30
2022-11-08T14:41:50.280Z,12.90
2022-11-08T14:44:19.502Z,14.20
2022-11-08T14:46:48.576Z,13.80
2022-11-08T14:49:24.226Z,12.80
2022-11-08T14:52:23.135Z,12.55
2022-11-08T14:55:07.475Z,13.58
2022-11-08T14:57:45.069Z,14.50
2022-11-08T15:00:24.755Z,12.90
2022-11-08T15:02:57.757Z,18.00
2022-11-08T15:05:37.229Z,17.62
2022-11-08T15:08:28.528Z,19.02
2022-11-08T15:11:01.683Z,22.40
2022-11-08T15:13:39.909Z,23.10
2022-11-08T15:16:09.641Z,20.80
2022-11-08T15:18:43.012Z,18.87
2022-11-08T15:21:30.574Z,17.52
2022-11-08T15:24:11.454Z,15.95
2022-11-08T15:26:39.827Z,20.27
2022-11-08T15:29:19.567Z,18.35
2022-11-08T15:32:01.368Z,18.90
2022-11-08T15:34:39.126Z,19.95
2022-11-08T15:37:35.571Z,20.72
2022-11-08T15:40:19.931Z,18.70
2022-11-08T15:42:51.395Z,19.45
2022-11-08T15:45:25.613Z,20.57
2022-11-08T15:48:03.767Z,18.90
2022-11-08T15:50:32.344Z,37.50
2022-11-08T15:53:03.137Z,85.53
2022-11-08T15:55:41.795Z,47.75
2022-11-08T15:58:16.949Z,49.85
2022-11-08T16:00:48.039Z,37.80
2022-11-08T16:03:15.669Z,44.53
2022-11-08T16:05:43.350Z,62.67
2022-11-08T16:08:13.340Z,65.83
2022-11-08T16:10:44.444Z,60.10
2022-11-08T16:13:29.055Z,55.90
2022-11-08T16:15:58.758Z,55.80
2022-11-08T16:18:26.734Z,52.40
2022-11-08T16:20:54.673Z,54.03
2022-11-08T16:23:22.117Z,49.42
2022-11-08T16:25:54.125Z,52.58
2022-11-08T16:28:33.918Z,53.85
2022-11-08T16:31:09.437Z,43.38
2022-11-08T16:33:37.089Z,41.73
2022-11-08T16:36:24.101Z,37.35
2022-11-08T16:38:57.420Z,49.27
2022-11-08T16:41:26.402Z,42.60
2022-11-08T16:43:55.941Z,45.75
2022-11-08T16:46:23.744Z,40.12
2022-11-08T16:48:59.038Z,42.65
2022-11-08T16:51:26.812Z,38.10
2022-11-08T16:53:54.185Z,33.98
2022-11-08T16:56:21.858Z,31.25
2022-11-08T16:58:49.800Z,29.75
2022-11-08T17:01:21.895Z,27.58
2022-11-08T17:03:49.364Z,28.65
2022-11-08T17:06:18.372Z,25.85
2022-11-08T17:08:46.137Z,27.58
2022-11-08T17:11:21.451Z,28.02
2022-11-08T17:13:50.074Z,28.85
2022-11-08T17:16:18.311Z,27.48
2022-11-08T17:18:51.244Z,26.73
2022-11-08T17:21:43.266Z,27.58
2022-11-08T17:23:45.391Z,29.42
2022-11-08T17:26:12.783Z,32.05
2022-11-08T17:28:40.913Z,29.45
2022-11-08T17:31:13.127Z,30.10
2022-11-08T17:33:41.142Z,33.63
2022-11-08T17:36:12.349Z,36.13
2022-11-08T17:38:42.037Z,35.60
2022-11-08T17:41:14.678Z,35.43
2022-11-08T17:43:43.144Z,35.05
2022-11-08T17:46:11.768Z,32.48
2022-11-08T17:48:40.186Z,37.55
2022-11-08T17:51:08.996Z,35.05
2022-11-08T17:53:36.840Z,32.60
2022-11-08T17:56:06.262Z,32.93
2022-11-08T17:58:34.981Z,39.10
2022-11-08T18:01:05.809Z,40.55
2022-11-08T18:03:34.777Z,40.00
2022-11-08T18:06:06.692Z,41.50
2022-11-08T18:08:35.462Z,39.90
2022-11-08T18:11:03.739Z,42.60
2022-11-08T18:13:33.496Z,45.85
2022-11-08T18:16:13.950Z,47.90
2022-11-08T18:18:42.119Z,45.98
2022-11-08T18:21:10.578Z,44.75
2022-11-08T18:23:45.437Z,43.35
2022-11-08T18:26:18.065Z,45.33
2022-11-08T18:28:46.048Z,40.73
2022-11-08T18:31:17.183Z,41.73
2022-11-08T18:33:45.397Z,39.45
2022-11-08T18:36:19.963Z,36.40
2022-11-08T18:38:49.557Z,34.50
2022-11-08T18:41:21.806Z,35.45
2022-11-08T18:43:49.175Z,29.90
2022-11-08T18:46:24.501Z,26.20
2022-11-08T18:48:52.229Z,27.32
2022-11-08T18:51:22.535Z,30.05
2022-11-08T18:53:51.862Z,32.78
2022-11-08T18:56:20.080Z,34.70
2022-11-08T18:58:48.440Z,32.80
2022-11-08T19:01:16.626Z,33.23
2022-11-08T19:03:47.624Z,34.33
2022-11-08T19:06:28.439Z,35.88
2022-11-08T19:09:00.499Z,35.88
2022-11-08T19:11:32.110Z,33.42
2022-11-08T19:14:01.338Z,31.30
2022-11-08T19:16:32.955Z,30.45
2022-11-08T19:19:00.855Z,29.65
2022-11-08T19:21:28.763Z,31.37
2022-11-08T19:23:59.438Z,31.27
2022-11-08T19:26:36.171Z,32.55
2022-11-08T19:29:05.510Z,31.07
2022-11-08T19:31:42.102Z,31.90
2022-11-08T19:34:10.452Z,32.33
2022-11-08T19:36:45.603Z,32.28
2022-11-08T19:39:13.227Z,32.58
2022-11-08T19:41:41.363Z,29.75
2022-11-08T19:44:10.125Z,30.02
2022-11-08T19:46:38.571Z,31.05
2022-11-08T19:49:06.477Z,30.90
2022-11-08T19:51:35.042Z,29.85
2022-11-08T19:54:07.494Z,30.80
2022-11-08T19:59:07.350Z,29.27
2022-11-08T20:01:39.494Z,30.97
2022-11-08T20:04:11.051Z,29.72
2022-11-08T20:06:39.574Z,28.70
2022-11-08T20:09:09.125Z,31.55
2022-11-08T20:11:41.138Z,28.35
2022-11-08T20:14:12.481Z,28.32
2022-11-08T20:16:42.592Z,28.38
2022-11-08T20:19:14.107Z,29.10
2022-11-08T20:21:43.979Z,29.15
2022-11-08T20:24:14.021Z,29.12
2022-11-08T20:26:42.955Z,29.07
2022-11-08T20:29:10.759Z,34.25
2022-11-08T20:31:39.124Z,40.60
2022-11-08T20:34:10.085Z,49.05
2022-11-08T20:36:44.187Z,35.58
2022-11-08T20:39:14.604Z,30.08
2022-11-08T20:41:44.481Z,28.50
2022-11-08T20:44:12.599Z,27.45
2022-11-08T20:46:40.909Z,28.73
2022-11-08T20:49:09.282Z,28.80
2022-11-08T20:51:37.839Z,28.85
2022-11-08T20:54:05.734Z,29.90
2022-11-08T20:56:33.413Z,30.72
2022-11-08T20:59:01.690Z,30.65
2022-11-08T21:01:32.184Z,29.77
2022-11-08T21:04:00.637Z,30.80
2022-11-08T21:06:29.017Z,32.03
2022-11-08T21:09:04.837Z,31.02
2022-11-08T21:11:26.310Z,31.10
2022-11-08T21:13:54.102Z,31.68
2022-11-08T21:16:30.974Z,32.93
2022-11-08T21:18:51.659Z,31.68
2022-11-08T21:21:22.057Z,31.23
2022-11-08T21:23:53.961Z,30.57
2022-11-08T21:26:22.755Z,29.57
2022-11-08T21:28:51.692Z,28.77
2022-11-08T21:31:19.810Z,28.90
2022-11-08T21:33:47.903Z,29.18
2022-11-08T21:36:16.897Z,29.23
2022-11-08T21:38:45.231Z,32.23
2022-11-08T21:41:13.247Z,29.57
2022-11-08T21:43:43.594Z,30.27
2022-11-08T21:46:18.909Z,27.98
2022-11-08T21:51:22.200Z,25.82
2022-11-08T21:53:55.964Z,28.67
2022-11-08T21:56:27.802Z,29.42
2022-11-08T21:58:55.782Z,32.23
2022-11-08T22:01:28.886Z,35.23
2022-11-08T22:03:54.030Z,34.98
2022-11-08T22:06:22.133Z,33.48
2022-11-08T22:08:50.042Z,35.95
2022-11-08T22:11:18.103Z,35.48
2022-11-08T22:13:46.069Z,36.73
2022-11-08T22:16:14.108Z,39.58
2022-11-08T22:19:03.645Z,38.53
2022-11-08T22:21:30.347Z,33.98
2022-11-08T22:23:58.271Z,33.83
2022-11-08T22:26:26.132Z,32.98
2022-11-08T22:28:54.068Z,31.15
2022-11-08T22:31:22.011Z,32.08
2022-11-08T22:33:49.900Z,32.33
2022-11-08T22:36:21.245Z,30.65
2022-11-08T22:38:48.941Z,28.47
2022-11-08T22:41:19.448Z,29.80
2022-11-08T22:43:47.900Z,26.80
2022-11-08T22:46:16.543Z,21.90
2022-11-08T22:48:45.236Z,25.52
2022-11-08T22:51:13.157Z,26.50
2022-11-08T22:53:41.019Z,27.95
2022-11-08T22:56:11.694Z,25.95
2022-11-08T22:58:40.329Z,26.65
2022-11-08T23:01:11.222Z,26.55
2022-11-08T23:03:39.369Z,29.42
2022-11-08T23:06:07.099Z,23.75
2022-11-08T23:08:35.099Z,35.48
2022-11-08T23:11:21.520Z,29.60
2022-11-08T23:14:08.349Z,23.77
2022-11-08T23:16:40.843Z,23.27
2022-11-08T23:19:34.190Z,20.08
2022-11-08T23:22:23.085Z,17.92
2022-11-08T23:24:51.067Z,17.17
2022-11-08T23:27:38.156Z,17.57
2022-11-08T23:30:25.881Z,17.35
2022-11-08T23:32:53.561Z,17.45
2022-11-08T23:35:21.541Z,15.98
2022-11-08T23:37:49.323Z,16.35
2022-11-08T23:40:37.241Z,16.35
2022-11-08T23:43:37.051Z,16.27
2022-11-08T23:46:08.150Z,15.65
2022-11-08T23:48:37.497Z,16.48
2022-11-08T23:51:06.255Z,16.93
2022-11-08T23:53:39.314Z,18.52
2022-11-08T23:56:07.176Z,15.98
2022-11-08T23:58:34.930Z,17.30
